Inukjuak Airport


Codes: CYPH/YPH
Name: Inukjuak Airport
City: Inukjuak
Country: Canada
Elevation: 83 ft.
Wikipedia:

Photos at Inukjuak Airport


   Photos courtesy of SpottingLog. You can add your own sightings and photos by signing up for a free trial today.



No photos found.

Weather at Inukjuak Airport


Time (UTC)DescriptionTempratureWindCloud coverageVisibilityPressureHumidity
26-Jun-2024 00:00Scattered Clouds11°C22 mph, N41%10000m998hPa48%
26-Jun-2024 03:00Few Clouds8°C20 mph, N24%10000m998hPa58%
26-Jun-2024 06:00Few Clouds6°C16 mph, N14%10000m1001hPa68%
26-Jun-2024 09:00Clear Sky4°C11 mph, N8%10000m1002hPa76%
26-Jun-2024 12:00Clear Sky7°C16 mph, N10%10000m1004hPa67%
26-Jun-2024 15:00Clear Sky9°C16 mph, NW9%10000m1004hPa58%
26-Jun-2024 18:00Scattered Clouds8°C13 mph, NW42%10000m1006hPa58%
26-Jun-2024 21:00Overcast Clouds8°C18 mph, NW87%10000m1007hPa54%
27-Jun-2024 00:00Broken Clouds7°C16 mph, NW57%10000m1008hPa61%
27-Jun-2024 03:00Scattered Clouds4°C11 mph, NW27%10000m1008hPa74%
27-Jun-2024 06:00Scattered Clouds3°C9 mph, NW46%10000m1008hPa83%
27-Jun-2024 09:00Broken Clouds3°C7 mph, NW77%10000m1009hPa87%
27-Jun-2024 12:00Overcast Clouds5°C9 mph, NW88%10000m1009hPa73%
27-Jun-2024 15:00Overcast Clouds6°C9 mph, W100%10000m1009hPa60%
27-Jun-2024 18:00Overcast Clouds7°C11 mph, W98%10000m1009hPa59%
27-Jun-2024 21:00Few Clouds6°C11 mph, W23%10000m1010hPa59%
28-Jun-2024 00:00Scattered Clouds6°C7 mph, W27%10000m1010hPa62%
28-Jun-2024 03:00Scattered Clouds4°C4 mph, SW25%10000m1009hPa69%
28-Jun-2024 06:00Broken Clouds4°C4 mph, S61%10000m1009hPa67%
28-Jun-2024 09:00Overcast Clouds4°C7 mph, SE100%10000m1008hPa68%
28-Jun-2024 12:00Overcast Clouds6°C13 mph, E100%10000m1006hPa61%
28-Jun-2024 15:00Light Rain7°C13 mph, SE100%10000m1004hPa65%
28-Jun-2024 18:00Moderate Rain7°C18 mph, E100%8821m1002hPa84%
28-Jun-2024 21:00Moderate Rain6°C16 mph, NE100%9457m1001hPa89%
29-Jun-2024 00:00Moderate Rain6°C9 mph, N100%10000m1002hPa92%
29-Jun-2024 03:00Light Rain5°C20 mph, N100%10000m1003hPa82%
29-Jun-2024 06:00Overcast Clouds4°C18 mph, NW99%10000m1005hPa81%
29-Jun-2024 09:00Scattered Clouds3°C20 mph, NW48%10000m1007hPa84%
29-Jun-2024 12:00Scattered Clouds6°C18 mph, NW25%10000m1009hPa69%
29-Jun-2024 15:00Clear Sky8°C16 mph, NW0%10000m1010hPa62%
29-Jun-2024 18:00Clear Sky8°C16 mph, W1%10000m1011hPa62%
29-Jun-2024 21:00Clear Sky6°C13 mph, W7%10000m1011hPa72%
30-Jun-2024 00:00Clear Sky5°C11 mph, W7%10000m1011hPa75%
30-Jun-2024 03:00Few Clouds3°C11 mph, SW12%10000m1011hPa85%
30-Jun-2024 06:00Few Clouds3°C11 mph, SW12%10000m1011hPa88%
30-Jun-2024 09:00Few Clouds3°C11 mph, SW14%10000m1010hPa90%
30-Jun-2024 12:00Scattered Clouds6°C11 mph, SW27%10000m1010hPa77%
30-Jun-2024 15:00Overcast Clouds6°C13 mph, S98%10000m1010hPa74%
30-Jun-2024 18:00Overcast Clouds7°C18 mph, SW99%10000m1010hPa70%
30-Jun-2024 21:00Overcast Clouds7°C18 mph, SW100%10000m1009hPa74%